Time;durP1;ratioP1;P1;durP2;ratioP2;P2;SDS_P1;SDS_P2;PMS_P1;PMS_P2;Temp;Humidity;BMP_temperature;BMP_pressure;BME280_temperature;BME280_humidity;BME280_pressure;Samples;Min_cycle;Max_cycle;Signal;HPM_P1;HPM_P2
2023/09/26 00:00:21;;;;;;;2.58;1.40;;;19.20;89.40;;;;;;5015194;28;20476;-83
2023/09/26 00:02:47;;;;;;;1.60;1.05;;;19.20;89.50;;;;;;5015246;28;20026;-83
2023/09/26 00:05:13;;;;;;;1.77;1.20;;;19.20;89.60;;;;;;4998352;28;20390;-83
2023/09/26 00:07:39;;;;;;;2.75;1.20;;;19.20;89.50;;;;;;5014810;28;20022;-83
2023/09/26 00:10:06;;;;;;;2.13;1.33;;;19.20;89.50;;;;;;5016141;28;20084;-83
2023/09/26 00:12:32;;;;;;;2.10;1.33;;;19.20;89.40;;;;;;5016030;28;20022;-83
2023/09/26 00:14:58;;;;;;;2.47;1.30;;;19.20;89.30;;;;;;5016040;28;20094;-83
2023/09/26 00:17:24;;;;;;;1.70;1.10;;;19.30;89.30;;;;;;5014776;28;20034;-83
2023/09/26 00:19:49;;;;;;;2.20;1.40;;;19.30;89.30;;;;;;5014967;28;20026;-83
2023/09/26 00:22:15;;;;;;;1.90;1.20;;;19.20;89.20;;;;;;5014969;28;20049;-83
2023/09/26 00:24:40;;;;;;;2.05;1.20;;;19.30;89.20;;;;;;5014416;28;20592;-83
2023/09/26 00:27:06;;;;;;;2.00;1.30;;;19.20;89.20;;;;;;5014772;28;20026;-83
2023/09/26 00:29:33;;;;;;;2.03;1.27;;;19.20;89.20;;;;;;5014652;28;20156;-82
2023/09/26 00:31:59;;;;;;;2.30;1.42;;;19.20;89.30;;;;;;5014669;28;20029;-83
2023/09/26 00:34:28;;;;;;;1.88;1.20;;;19.20;89.30;;;;;;5014417;28;20402;-83
2023/09/26 00:36:54;;;;;;;2.28;1.33;;;19.20;89.40;;;;;;5015764;28;20033;-83
2023/09/26 00:39:21;;;;;;;1.50;1.10;;;19.20;89.50;;;;;;5014713;28;20037;-83
2023/09/26 00:41:46;;;;;;;3.85;1.65;;;19.20;89.40;;;;;;5014272;28;20030;-83
2023/09/26 00:44:12;;;;;;;2.05;1.27;;;19.10;89.40;;;;;;5015230;28;20434;-83
2023/09/26 00:46:39;;;;;;;2.63;1.30;;;19.20;89.40;;;;;;5015693;28;20045;-84
2023/09/26 00:49:06;;;;;;;2.50;1.45;;;19.10;89.40;;;;;;5015561;28;20033;-82
2023/09/26 00:51:33;;;;;;;2.28;1.20;;;19.20;89.50;;;;;;5014084;28;20026;-82
2023/09/26 00:54:00;;;;;;;1.88;1.23;;;19.10;89.50;;;;;;5013819;28;20526;-83
2023/09/26 00:56:25;;;;;;;2.10;1.20;;;19.10;89.50;;;;;;5015372;28;20021;-83
2023/09/26 00:58:51;;;;;;;2.60;1.40;;;19.10;89.50;;;;;;5014088;28;20133;-82
2023/09/26 01:01:24;;;;;;;2.05;1.20;;;19.10;89.60;;;;;;5014334;28;20037;-83
2023/09/26 01:03:49;;;;;;;2.25;1.40;;;19.10;89.60;;;;;;5015331;28;20021;-82
2023/09/26 01:06:15;;;;;;;2.20;1.27;;;19.20;89.70;;;;;;5013944;28;20030;-83
2023/09/26 01:08:41;;;;;;;2.35;1.30;;;19.20;89.60;;;;;;5015136;28;20512;-83
2023/09/26 01:11:08;;;;;;;1.95;1.20;;;19.20;89.60;;;;;;5013804;28;20117;-83
2023/09/26 01:13:33;;;;;;;2.67;1.30;;;19.20;89.50;;;;;;5014898;28;20028;-83
2023/09/26 01:16:14;;;;;;;1.80;1.20;;;19.20;89.40;;;;;;5014144;28;20022;-82
2023/09/26 01:18:39;;;;;;;1.85;1.17;;;19.20;89.40;;;;;;5015425;28;20026;-83
2023/09/26 01:21:05;;;;;;;2.45;1.48;;;19.20;89.30;;;;;;5016960;28;20026;-83
2023/09/26 01:23:31;;;;;;;2.08;1.00;;;19.20;89.20;;;;;;5016865;28;20025;-83
2023/09/26 01:25:56;;;;;;;2.17;1.40;;;19.20;89.20;;;;;;5034324;28;20027;-82
2023/09/26 01:28:22;;;;;;;2.22;1.27;;;19.20;89.30;;;;;;5016963;28;20420;-81
2023/09/26 01:30:48;;;;;;;2.35;1.45;;;19.20;89.30;;;;;;5034625;28;20458;-83
2023/09/26 01:33:19;;;;;;;1.20;1.00;;;19.10;89.30;;;;;;5016568;28;20025;-85
2023/09/26 01:35:44;;;;;;;2.35;1.45;;;19.10;89.30;;;;;;5016679;28;20108;-83
2023/09/26 01:38:11;;;;;;;2.42;1.40;;;19.10;89.40;;;;;;5034620;28;20068;-83
2023/09/26 01:40:36;;;;;;;1.95;1.17;;;19.10;89.50;;;;;;5017141;28;20048;-83
2023/09/26 01:43:02;;;;;;;2.60;1.40;;;19.10;89.50;;;;;;5016636;28;20060;-83
2023/09/26 01:45:27;;;;;;;2.17;1.40;;;19.10;89.50;;;;;;5034091;28;20104;-83
2023/09/26 01:47:53;;;;;;;2.45;1.20;;;19.10;89.50;;;;;;5016752;28;20067;-83
2023/09/26 01:50:20;;;;;;;2.47;1.25;;;19.10;89.50;;;;;;5016268;28;20025;-83
2023/09/26 01:52:47;;;;;;;2.50;1.30;;;19.10;89.50;;;;;;5016535;28;20034;-83
2023/09/26 01:55:20;;;;;;;2.88;1.35;;;19.10;89.60;;;;;;5016259;28;20101;-83
2023/09/26 01:57:46;;;;;;;2.05;1.30;;;19.10;89.60;;;;;;5016356;28;20485;-82
2023/09/26 02:00:12;;;;;;;2.47;1.30;;;19.10;89.70;;;;;;5016276;28;20026;-83
2023/09/26 02:02:45;;;;;;;2.25;1.20;;;19.10;89.70;;;;;;5016164;28;20033;-83
2023/09/26 02:05:13;;;;;;;2.15;1.40;;;19.10;89.70;;;;;;5035107;22;20041;-79
2023/09/26 02:07:39;;;;;;;1.85;1.15;;;19.10;90.00;;;;;;5052767;28;20066;-79
2023/09/26 02:10:05;;;;;;;1.75;1.40;;;19.10;89.60;;;;;;5054059;28;20048;-79
2023/09/26 02:12:32;;;;;;;2.40;1.33;;;19.20;89.60;;;;;;5053512;28;20082;-80
2023/09/26 02:15:00;;;;;;;1.77;1.27;;;19.20;89.50;;;;;;5057023;28;20032;-80
2023/09/26 02:17:26;;;;;;;3.40;1.50;;;19.10;89.40;;;;;;5049556;28;20033;-80
2023/09/26 02:19:51;;;;;;;2.03;1.20;;;19.20;89.40;;;;;;5037959;28;20025;-80
2023/09/26 02:22:17;;;;;;;2.38;1.40;;;19.10;89.30;;;;;;5038996;28;20545;-80
2023/09/26 02:24:42;;;;;;;2.50;1.48;;;19.10;89.30;;;;;;5039361;28;20028;-80
2023/09/26 02:27:08;;;;;;;1.92;1.40;;;19.10;89.30;;;;;;5057822;28;20052;-80
2023/09/26 02:29:33;;;;;;;2.65;1.30;;;19.10;89.30;;;;;;5047735;28;20035;-80
2023/09/26 02:31:59;;;;;;;2.08;1.20;;;19.00;89.40;;;;;;5039315;28;20021;-80
2023/09/26 02:34:24;;;;;;;2.17;1.25;;;19.10;89.40;;;;;;5038641;28;20393;-80
2023/09/26 02:36:50;;;;;;;2.58;1.40;;;19.10;89.50;;;;;;5039131;28;20116;-80
2023/09/26 02:39:16;;;;;;;2.60;1.50;;;19.10;89.50;;;;;;5046617;28;20045;-80
2023/09/26 02:41:41;;;;;;;2.28;1.33;;;19.10;89.50;;;;;;5056505;28;20021;-80
2023/09/26 02:44:07;;;;;;;2.42;1.50;;;19.10;89.50;;;;;;5056004;28;20031;-80
2023/09/26 02:46:33;;;;;;;1.98;1.30;;;19.10;89.50;;;;;;5056305;28;20029;-80
2023/09/26 02:49:02;;;;;;;2.47;1.50;;;19.10;89.40;;;;;;5057851;28;20029;-80
2023/09/26 02:51:27;;;;;;;2.13;1.23;;;19.10;89.50;;;;;;5056385;28;20112;-80
2023/09/26 02:53:53;;;;;;;2.22;1.38;;;19.00;89.40;;;;;;5056132;28;20063;-80
2023/09/26 02:56:18;;;;;;;1.88;1.25;;;19.10;89.40;;;;;;5055745;28;20556;-79
2023/09/26 02:58:44;;;;;;;2.40;1.50;;;19.10;89.50;;;;;;5057203;28;20037;-80
2023/09/26 03:01:15;;;;;;;2.03;1.27;;;19.10;89.70;;;;;;5055505;28;20031;-80
2023/09/26 03:03:40;;;;;;;2.13;1.33;;;19.00;89.70;;;;;;5056397;28;20025;-80
2023/09/26 03:06:06;;;;;;;1.98;1.33;;;19.10;89.70;;;;;;5056322;28;20048;-80
2023/09/26 03:08:31;;;;;;;2.40;1.60;;;19.10;89.70;;;;;;5056535;28;20025;-79
2023/09/26 03:11:00;;;;;;;2.22;1.30;;;19.10;89.60;;;;;;5055954;28;20032;-80
2023/09/26 03:13:27;;;;;;;2.55;1.40;;;19.10;89.50;;;;;;5054877;28;20035;-78
2023/09/26 03:15:56;;;;;;;3.05;1.60;;;19.10;89.50;;;;;;5055787;28;20017;-80
2023/09/26 03:18:22;;;;;;;3.28;1.80;;;19.10;89.20;;;;;;5053634;28;20021;-80
2023/09/26 03:20:47;;;;;;;2.95;1.60;;;19.10;89.60;;;;;;5053587;28;20041;-81
2023/09/26 03:23:13;;;;;;;2.72;1.40;;;19.10;89.10;;;;;;5042535;28;20044;-80
2023/09/26 03:25:39;;;;;;;2.58;1.38;;;19.10;89.20;;;;;;5041986;28;20048;-79
2023/09/26 03:28:04;;;;;;;2.53;1.40;;;19.00;89.20;;;;;;5038630;28;20049;-79
2023/09/26 03:30:30;;;;;;;1.92;1.30;;;19.10;89.30;;;;;;5037214;28;20079;-80
2023/09/26 03:32:56;;;;;;;2.25;1.30;;;19.10;89.40;;;;;;5053881;28;20068;-78
2023/09/26 03:35:21;;;;;;;2.55;1.25;;;19.10;89.40;;;;;;5053017;28;20036;-80
2023/09/26 03:37:47;;;;;;;2.42;1.40;;;19.10;89.50;;;;;;5053223;28;20133;-79
2023/09/26 03:40:13;;;;;;;3.47;1.40;;;19.00;89.40;;;;;;5053378;28;20028;-80
2023/09/26 03:42:38;;;;;;;2.30;1.30;;;19.00;89.50;;;;;;5053191;28;20032;-79
2023/09/26 03:45:05;;;;;;;2.95;1.55;;;19.00;89.50;;;;;;5054038;28;20031;-79
2023/09/26 03:47:30;;;;;;;2.60;1.50;;;19.00;89.50;;;;;;5035855;28;20060;-78
2023/09/26 03:49:56;;;;;;;2.10;1.40;;;19.10;89.60;;;;;;5068639;28;20057;-78
2023/09/26 03:52:22;;;;;;;2.53;1.65;;;19.00;89.50;;;;;;5068660;28;20033;-80
2023/09/26 03:54:48;;;;;;;3.00;1.70;;;19.00;89.50;;;;;;5054125;28;20594;-80
2023/09/26 03:57:13;;;;;;;2.13;1.50;;;19.00;89.50;;;;;;5069482;28;20116;-81
2023/09/26 03:59:39;;;;;;;2.13;1.40;;;19.00;89.60;;;;;;5069679;28;20120;-83
2023/09/26 04:02:04;;;;;;;2.95;1.40;;;19.00;89.60;;;;;;5071078;28;20365;-81
2023/09/26 04:04:31;;;;;;;2.80;1.50;;;19.00;89.60;;;;;;5055294;28;20103;-82
2023/09/26 04:06:58;;;;;;;2.40;1.50;;;19.10;89.70;;;;;;5055679;28;20508;-80
2023/09/26 04:09:23;;;;;;;2.20;1.40;;;19.10;89.60;;;;;;5054649;28;20032;-79
2023/09/26 04:11:49;;;;;;;2.72;1.40;;;19.00;89.50;;;;;;5054889;28;20033;-81
2023/09/26 04:14:14;;;;;;;2.25;1.50;;;19.00;89.40;;;;;;5054584;28;20086;-80
2023/09/26 04:16:40;;;;;;;2.33;1.50;;;19.10;89.30;;;;;;5054660;28;20033;-80
2023/09/26 04:19:05;;;;;;;2.33;1.40;;;19.10;89.30;;;;;;5037176;28;20473;-79
2023/09/26 04:21:31;;;;;;;2.25;1.23;;;19.10;89.30;;;;;;5035682;28;20144;-80
2023/09/26 04:23:59;;;;;;;2.67;1.58;;;19.10;89.30;;;;;;5034861;28;20032;-78
2023/09/26 04:26:25;;;;;;;2.53;1.45;;;19.00;89.30;;;;;;5035110;28;20028;-79
2023/09/26 04:28:50;;;;;;;1.95;1.30;;;19.00;89.30;;;;;;5034305;28;20485;-79
2023/09/26 04:31:18;;;;;;;3.42;1.60;;;19.00;89.40;;;;;;5035086;28;20059;-80
2023/09/26 04:33:44;;;;;;;2.75;1.65;;;19.00;89.40;;;;;;5030337;28;20493;-79
2023/09/26 04:36:09;;;;;;;3.15;1.50;;;19.00;89.50;;;;;;5051265;28;20032;-79
2023/09/26 04:38:36;;;;;;;2.22;1.35;;;19.00;89.50;;;;;;5034130;28;20381;-79
2023/09/26 04:41:04;;;;;;;2.90;1.42;;;19.00;89.50;;;;;;5052441;28;20024;-78
2023/09/26 04:43:31;;;;;;;2.05;1.38;;;19.00;89.60;;;;;;5051938;28;20025;-79
2023/09/26 04:45:57;;;;;;;2.67;1.67;;;19.00;89.50;;;;;;5033613;28;20044;-79
2023/09/26 04:48:22;;;;;;;2.90;1.75;;;19.00;89.60;;;;;;5033739;28;20106;-79
2023/09/26 04:50:48;;;;;;;2.80;1.60;;;19.00;89.60;;;;;;5051832;28;20029;-78
2023/09/26 04:53:14;;;;;;;2.85;1.50;;;19.00;89.60;;;;;;5033971;28;20021;-78
2023/09/26 04:55:41;;;;;;;2.58;1.42;;;19.00;89.60;;;;;;5051473;28;20037;-77
2023/09/26 04:58:06;;;;;;;2.42;1.40;;;19.00;89.60;;;;;;5052293;28;20033;-79
2023/09/26 05:00:32;;;;;;;2.63;1.50;;;19.00;89.60;;;;;;5034001;28;20032;-78
2023/09/26 05:02:58;;;;;;;2.38;1.50;;;19.00;89.70;;;;;;5034215;28;20032;-80
2023/09/26 05:05:27;;;;;;;2.92;1.60;;;19.00;89.70;;;;;;5033051;28;20485;-80
2023/09/26 05:07:53;;;;;;;2.40;1.40;;;19.00;89.70;;;;;;5051740;28;20055;-79
2023/09/26 05:10:19;;;;;;;3.10;1.45;;;19.00;89.70;;;;;;5033579;28;20028;-79
2023/09/26 05:12:45;;;;;;;3.03;1.60;;;19.00;89.60;;;;;;5033522;28;20115;-78
2023/09/26 05:28:47;;;;;;;2.85;1.50;;;19.00;89.00;;;;;;5109467;27;20425;-79
2023/09/26 05:33:56;;;;;;;2.75;1.50;;;19.00;88.60;;;;;;5089304;28;20497;-82
2023/09/26 05:36:22;;;;;;;6.55;2.63;;;18.90;86.90;;;;;;5090525;28;20024;-82
2023/09/26 05:38:47;;;;;;;5.97;2.40;;;19.00;87.10;;;;;;5090300;28;20523;-82
2023/09/26 05:41:13;;;;;;;5.65;2.40;;;19.00;87.40;;;;;;5072273;28;20021;-82
2023/09/26 05:43:38;;;;;;;6.18;2.67;;;19.00;87.60;;;;;;5091710;28;20031;-83
2023/09/26 05:46:04;;;;;;;5.30;2.53;;;19.00;87.60;;;;;;5110229;28;20034;-82
2023/09/26 05:48:30;;;;;;;6.55;2.75;;;19.00;87.50;;;;;;5091678;28;20076;-82
2023/09/26 05:50:59;;;;;;;6.65;2.15;;;19.00;87.50;;;;;;5091816;28;20024;-82
2023/09/26 05:53:25;;;;;;;5.07;2.47;;;19.00;87.50;;;;;;5110044;28;20099;-82
2023/09/26 05:55:53;;;;;;;5.88;2.17;;;19.00;87.40;;;;;;5110153;28;20136;-82
2023/09/26 05:58:19;;;;;;;4.20;2.30;;;19.10;87.40;;;;;;5109823;28;20036;-81
2023/09/26 06:00:46;;;;;;;5.70;2.30;;;19.00;87.40;;;;;;5091756;28;20537;-81
2023/09/26 06:03:12;;;;;;;5.90;2.47;;;19.00;87.30;;;;;;5109719;28;20024;-81
2023/09/26 06:05:38;;;;;;;5.63;2.30;;;19.10;87.50;;;;;;5091854;28;20020;-82
2023/09/26 06:08:04;;;;;;;3.80;2.25;;;19.10;87.40;;;;;;5091735;28;20082;-82
2023/09/26 06:10:29;;;;;;;4.65;2.08;;;19.20;87.50;;;;;;5091495;28;20031;-82
2023/09/26 06:12:55;;;;;;;5.20;2.40;;;19.20;87.30;;;;;;5091822;28;20045;-82
2023/09/26 06:15:22;;;;;;;5.85;2.28;;;19.20;87.30;;;;;;5091593;28;20020;-81
2023/09/26 06:17:47;;;;;;;6.28;2.38;;;19.30;87.30;;;;;;5109395;28;20055;-81
2023/09/26 06:20:13;;;;;;;4.22;2.30;;;19.20;87.00;;;;;;5109719;28;20032;-81
2023/09/26 06:22:38;;;;;;;3.50;2.00;;;19.30;87.00;;;;;;5091231;28;20035;-82
2023/09/26 06:25:05;;;;;;;4.18;2.20;;;19.30;87.00;;;;;;5091284;28;20028;-82
2023/09/26 06:27:37;;;;;;;4.20;2.40;;;19.30;87.00;;;;;;5109330;28;20489;-82
2023/09/26 06:30:04;;;;;;;;;;;19.30;86.90;;;;;;5077730;28;20539;-81
2023/09/26 06:32:30;;;;;;;6.05;2.17;;;19.30;86.90;;;;;;5077570;28;19916;-82
2023/09/26 06:34:59;;;;;;;4.05;2.22;;;19.30;86.90;;;;;;5095799;28;20370;-82
2023/09/26 06:37:24;;;;;;;4.28;2.20;;;19.30;86.90;;;;;;5095927;28;20043;-81
2023/09/26 06:39:50;;;;;;;5.82;2.20;;;19.40;87.00;;;;;;5077323;28;20473;-81
2023/09/26 06:42:16;;;;;;;4.57;2.10;;;19.40;87.00;;;;;;5077674;28;20031;-82
2023/09/26 06:44:41;;;;;;;4.28;1.98;;;19.40;86.90;;;;;;5095530;28;20017;-82
2023/09/26 06:47:07;;;;;;;3.88;2.10;;;19.40;86.80;;;;;;5094847;28;20036;-81
2023/09/26 06:49:34;;;;;;;4.05;1.95;;;19.40;86.70;;;;;;5076970;28;20027;-82
2023/09/26 06:52:00;;;;;;;3.63;2.00;;;19.40;86.60;;;;;;5077143;28;20501;-81
2023/09/26 06:54:25;;;;;;;3.45;1.88;;;19.50;86.70;;;;;;5077227;28;20049;-82
2023/09/26 06:56:51;;;;;;;3.45;2.00;;;19.50;86.50;;;;;;5077148;28;20114;-82
2023/09/26 06:59:17;;;;;;;3.63;1.88;;;19.50;86.50;;;;;;5095094;28;20016;-81
2023/09/26 07:01:43;;;;;;;4.22;2.10;;;19.50;86.40;;;;;;5095129;28;20087;-82
2023/09/26 07:04:14;;;;;;;3.35;2.03;;;19.60;86.50;;;;;;5077248;28;20024;-81
2023/09/26 07:06:43;;;;;;;3.60;2.27;;;19.60;86.40;;;;;;5077128;28;20031;-82
2023/09/26 07:09:08;;;;;;;3.28;1.90;;;19.60;86.30;;;;;;5094936;28;20020;-81
2023/09/26 07:11:34;;;;;;;4.05;2.10;;;19.70;86.10;;;;;;5076890;28;20476;-82
2023/09/26 07:13:59;;;;;;;4.35;2.20;;;19.70;85.90;;;;;;5076914;28;20081;-81
2023/09/26 07:16:25;;;;;;;3.80;2.00;;;19.80;85.80;;;;;;5076979;28;20029;-82
2023/09/26 07:18:51;;;;;;;3.70;2.17;;;19.80;85.80;;;;;;5094814;28;20073;-83
2023/09/26 07:21:16;;;;;;;3.47;2.00;;;19.80;85.70;;;;;;5076645;28;20028;-81
2023/09/26 07:23:42;;;;;;;3.75;2.00;;;19.70;85.80;;;;;;5094588;28;20020;-81
2023/09/26 07:26:17;;;;;;;3.72;1.92;;;19.80;85.80;;;;;;5076807;28;20090;-82
2023/09/26 07:28:46;;;;;;;3.90;2.05;;;19.80;85.80;;;;;;5094433;28;20012;-82
2023/09/26 07:31:13;;;;;;;4.05;2.33;;;19.80;85.90;;;;;;5076411;28;20070;-82
2023/09/26 07:33:39;;;;;;;3.63;1.90;;;19.80;85.80;;;;;;5076305;28;20121;-81
2023/09/26 07:36:06;;;;;;;4.55;2.17;;;19.80;85.80;;;;;;5075626;28;20024;-82
2023/09/26 07:38:32;;;;;;;3.67;2.03;;;19.80;85.80;;;;;;5094278;28;20023;-83
2023/09/26 07:40:58;;;;;;;4.55;2.20;;;19.80;85.80;;;;;;5075201;28;20397;-81
2023/09/26 07:43:29;;;;;;;4.18;2.20;;;19.80;85.70;;;;;;5076030;28;20115;-82
2023/09/26 07:45:57;;;;;;;4.60;1.95;;;19.80;85.80;;;;;;5076296;28;20070;-82
2023/09/26 07:48:23;;;;;;;5.57;2.20;;;19.80;85.70;;;;;;5075963;28;20039;-82
2023/09/26 07:50:49;;;;;;;4.00;2.30;;;19.80;85.60;;;;;;5075965;28;20024;-82
2023/09/26 07:53:15;;;;;;;3.92;2.30;;;19.90;85.60;;;;;;5075915;28;20036;-82
2023/09/26 07:55:40;;;;;;;3.88;2.50;;;19.80;85.60;;;;;;5076098;28;20115;-82
2023/09/26 07:58:06;;;;;;;3.85;2.20;;;19.90;85.50;;;;;;5075750;28;20064;-80
2023/09/26 08:00:31;;;;;;;3.22;2.00;;;20.00;85.70;;;;;;5094060;28;20016;-81
2023/09/26 08:02:57;;;;;;;4.60;2.28;;;20.00;85.60;;;;;;5075979;28;20534;-82
2023/09/26 08:05:22;;;;;;;4.00;2.05;;;20.00;85.50;;;;;;5075805;28;20506;-81
2023/09/26 08:07:48;;;;;;;3.65;2.15;;;20.00;85.40;;;;;;5093700;28;20153;-82
2023/09/26 08:10:14;;;;;;;3.63;2.13;;;20.10;85.40;;;;;;5075726;28;20053;-82
2023/09/26 08:12:41;;;;;;;3.85;2.13;;;20.10;85.20;;;;;;5075572;28;20032;-82
2023/09/26 08:15:08;;;;;;;3.90;2.25;;;20.20;85.20;;;;;;5093844;28;20031;-81
2023/09/26 08:17:34;;;;;;;4.80;2.30;;;20.20;85.00;;;;;;5075663;28;20077;-82
2023/09/26 08:20:00;;;;;;;3.85;2.10;;;20.20;84.90;;;;;;5075553;28;20665;-82
2023/09/26 08:22:25;;;;;;;3.88;2.10;;;20.20;84.80;;;;;;5075303;28;20124;-82
2023/09/26 08:24:51;;;;;;;3.72;2.05;;;20.20;84.80;;;;;;5075361;28;20027;-81
2023/09/26 08:27:17;;;;;;;3.60;2.13;;;20.20;84.70;;;;;;5075409;28;20129;-83
2023/09/26 08:29:42;;;;;;;3.65;2.30;;;20.30;84.90;;;;;;5075278;28;20031;-82
2023/09/26 08:32:09;;;;;;;4.57;2.20;;;20.30;84.80;;;;;;5075202;28;20032;-82
2023/09/26 08:34:34;;;;;;;3.45;2.10;;;20.30;84.80;;;;;;5075364;28;20028;-82
2023/09/26 08:37:00;;;;;;;3.60;2.00;;;20.30;85.00;;;;;;5075222;28;20024;-82
2023/09/26 08:39:26;;;;;;;3.60;2.10;;;20.30;85.00;;;;;;5075126;28;20050;-82
2023/09/26 08:41:52;;;;;;;3.72;2.10;;;20.30;85.00;;;;;;5093171;28;20541;-82
2023/09/26 08:44:17;;;;;;;3.42;2.20;;;20.30;84.90;;;;;;5075469;28;20050;-83
2023/09/26 08:46:45;;;;;;;3.05;1.90;;;20.40;84.90;;;;;;5093399;28;20043;-82
2023/09/26 08:49:10;;;;;;;2.95;1.98;;;20.40;84.90;;;;;;5074826;28;20114;-82
2023/09/26 08:51:37;;;;;;;3.90;2.20;;;20.40;84.80;;;;;;5074799;28;20063;-81
2023/09/26 08:54:03;;;;;;;3.85;2.10;;;20.40;84.80;;;;;;5074969;28;20114;-82
2023/09/26 08:56:31;;;;;;;3.25;2.05;;;20.40;84.70;;;;;;5093174;28;20107;-81
2023/09/26 08:58:58;;;;;;;3.75;2.00;;;20.50;84.80;;;;;;5074612;28;20474;-82
2023/09/26 09:01:24;;;;;;;3.92;1.90;;;20.50;84.70;;;;;;5092910;28;20031;-82
2023/09/26 09:03:50;;;;;;;3.10;2.00;;;20.60;84.60;;;;;;5074985;28;20034;-82
2023/09/26 09:06:15;;;;;;;3.85;2.00;;;20.60;84.50;;;;;;5093071;28;20103;-81
2023/09/26 09:08:41;;;;;;;2.83;1.95;;;20.60;84.40;;;;;;5074699;28;20073;-81
2023/09/26 09:11:06;;;;;;;3.15;2.00;;;20.60;84.30;;;;;;5074934;28;20397;-81
2023/09/26 09:13:34;;;;;;;4.88;2.13;;;20.60;84.30;;;;;;5074849;28;20027;-82
2023/09/26 09:16:09;;;;;;;3.47;2.00;;;20.60;84.30;;;;;;5074903;28;20023;-81
2023/09/26 09:18:47;;;;;;;3.63;2.13;;;20.60;84.20;;;;;;5092824;28;20030;-82
2023/09/26 09:21:33;;;;;;;4.20;2.20;;;20.60;84.30;;;;;;5075014;28;20397;-82
2023/09/26 09:24:06;;;;;;;2.70;1.90;;;20.60;84.30;;;;;;5074862;28;20382;-82
2023/09/26 09:26:35;;;;;;;2.63;1.67;;;20.60;84.40;;;;;;5074904;28;20489;-82
2023/09/26 09:29:17;;;;;;;3.03;1.90;;;20.60;84.40;;;;;;5074352;28;20065;-82
2023/09/26 09:31:42;;;;;;;3.20;2.00;;;20.60;84.50;;;;;;5074302;28;20718;-80
2023/09/26 09:34:08;;;;;;;3.35;1.83;;;20.60;84.40;;;;;;5092811;28;20115;-81
2023/09/26 09:36:34;;;;;;;3.45;1.98;;;20.60;84.50;;;;;;5074612;28;20028;-82
2023/09/26 09:39:02;;;;;;;2.75;1.73;;;20.60;84.50;;;;;;5074299;28;20063;-82
2023/09/26 09:41:27;;;;;;;3.58;1.80;;;20.60;84.50;;;;;;5074403;28;20024;-82
2023/09/26 09:43:53;;;;;;;3.60;2.03;;;20.60;84.50;;;;;;5074588;28;20481;-81
2023/09/26 09:46:22;;;;;;;3.20;1.85;;;20.70;84.60;;;;;;5074619;28;20024;-82
2023/09/26 09:48:57;;;;;;;3.30;1.90;;;20.60;84.50;;;;;;5092370;28;20020;-82
2023/09/26 09:51:25;;;;;;;2.67;1.77;;;20.60;84.60;;;;;;5074502;28;20024;-82
2023/09/26 09:53:54;;;;;;;2.80;1.80;;;20.60;84.70;;;;;;5074661;28;20024;-82
2023/09/26 09:56:24;;;;;;;3.85;1.75;;;20.60;84.80;;;;;;5074559;28;20193;-82
2023/09/26 09:58:51;;;;;;;2.88;1.70;;;20.60;84.90;;;;;;5074271;28;20016;-82
2023/09/26 10:01:20;;;;;;;2.63;1.70;;;20.60;85.00;;;;;;5074382;28;20031;-83
2023/09/26 10:03:48;;;;;;;2.88;1.80;;;20.60;85.10;;;;;;5093864;28;20044;-82
2023/09/26 10:06:13;;;;;;;2.53;1.73;;;20.60;85.00;;;;;;5078227;28;20031;-82
2023/09/26 10:08:41;;;;;;;2.80;1.90;;;20.60;85.00;;;;;;5095895;28;20107;-82
2023/09/26 10:11:07;;;;;;;3.13;1.80;;;20.60;85.00;;;;;;5077843;28;20501;-82
2023/09/26 10:13:33;;;;;;;3.20;2.00;;;20.60;85.00;;;;;;5077778;28;20024;-81
2023/09/26 10:16:16;;;;;;;2.63;1.80;;;20.60;85.00;;;;;;5096074;28;20046;-82
2023/09/26 10:18:43;;;;;;;2.88;1.75;;;20.60;85.10;;;;;;5077909;28;20035;-82
2023/09/26 10:21:28;;;;;;;3.03;1.80;;;20.60;85.20;;;;;;5077587;28;20024;-82
2023/09/26 10:24:06;;;;;;;3.10;1.85;;;20.60;85.30;;;;;;5095990;28;20020;-82
2023/09/26 10:26:44;;;;;;;2.45;1.60;;;20.60;85.30;;;;;;5077668;28;20024;-82
2023/09/26 10:29:24;;;;;;;2.70;1.60;;;20.60;85.40;;;;;;5095936;28;20494;-82
2023/09/26 10:31:55;;;;;;;2.78;1.70;;;20.60;85.40;;;;;;5077411;28;20066;-83
2023/09/26 10:34:27;;;;;;;2.67;1.65;;;20.60;85.40;;;;;;5077743;28;20024;-82
2023/09/26 10:36:53;;;;;;;;;;;20.60;85.40;;;;;;5096075;28;20198;-82
2023/09/26 10:39:31;;;;;;;2.80;1.65;;;20.60;85.60;;;;;;5077635;28;19909;-83
2023/09/26 10:42:01;;;;;;;3.25;1.70;;;20.60;85.60;;;;;;5095544;28;20076;-82
2023/09/26 10:44:27;;;;;;;1.80;1.27;;;20.60;85.70;;;;;;5095472;28;20111;-82
2023/09/26 10:46:53;;;;;;;2.55;1.67;;;20.50;85.60;;;;;;5077359;28;20055;-82
2023/09/26 10:49:18;;;;;;;3.58;1.70;;;20.60;85.70;;;;;;5077324;28;20020;-82
2023/09/26 10:51:44;;;;;;;2.58;1.70;;;20.50;85.70;;;;;;5095164;28;20153;-82
2023/09/26 10:54:10;;;;;;;2.28;1.50;;;20.50;85.70;;;;;;5077422;28;20080;-83
2023/09/26 10:56:35;;;;;;;3.00;1.63;;;20.50;85.70;;;;;;5095191;28;20028;-82
2023/09/26 10:59:02;;;;;;;2.40;1.40;;;20.50;85.70;;;;;;5077045;28;20535;-82
2023/09/26 11:01:37;;;;;;;3.58;1.67;;;20.50;85.60;;;;;;5077355;28;20020;-83
2023/09/26 11:04:05;;;;;;;2.42;1.50;;;20.50;85.60;;;;;;5095226;28;20020;-82
2023/09/26 11:06:31;;;;;;;2.40;1.60;;;20.60;85.60;;;;;;5077025;28;20032;-82
2023/09/26 11:08:57;;;;;;;3.03;1.58;;;20.60;85.50;;;;;;5076851;28;20031;-82
2023/09/26 11:11:22;;;;;;;2.83;1.60;;;20.60;85.40;;;;;;5076656;28;20036;-82
2023/09/26 11:13:48;;;;;;;2.67;1.55;;;20.60;85.30;;;;;;5076952;28;20077;-82
2023/09/26 11:16:14;;;;;;;3.10;1.65;;;20.60;85.40;;;;;;5076731;28;20060;-81
2023/09/26 11:18:39;;;;;;;1.95;1.45;;;20.60;85.40;;;;;;5076983;28;20034;-82
2023/09/26 11:21:05;;;;;;;2.72;1.92;;;20.60;85.50;;;;;;5076680;28;20016;-82
2023/09/26 11:23:40;;;;;;;2.85;1.70;;;20.50;85.40;;;;;;5094628;28;20012;-82
2023/09/26 11:26:07;;;;;;;2.40;1.55;;;20.50;85.60;;;;;;5076431;28;20493;-83
2023/09/26 11:28:34;;;;;;;2.17;1.40;;;20.50;85.60;;;;;;5076346;28;20447;-83
2023/09/26 11:31:00;;;;;;;2.25;1.42;;;20.50;85.70;;;;;;5094649;28;20036;-82
2023/09/26 11:33:26;;;;;;;2.55;1.55;;;20.50;85.80;;;;;;5093781;22;20130;-78
2023/09/26 11:35:51;;;;;;;2.83;1.45;;;20.50;85.80;;;;;;5055086;28;20017;-79
2023/09/26 11:38:17;;;;;;;2.72;1.65;;;20.50;85.90;;;;;;5054241;28;20140;-79
2023/09/26 11:40:44;;;;;;;2.85;1.60;;;20.50;86.00;;;;;;5036438;28;20100;-79
2023/09/26 11:43:09;;;;;;;1.88;1.20;;;20.50;86.50;;;;;;5054221;28;20029;-78
2023/09/26 11:45:37;;;;;;;2.60;1.60;;;20.50;86.00;;;;;;5036555;28;20036;-78
2023/09/26 11:48:05;;;;;;;3.95;1.70;;;20.50;86.00;;;;;;5036382;28;20115;-79
2023/09/26 11:50:30;;;;;;;2.35;1.65;;;20.40;85.90;;;;;;5054223;28;20044;-78
2023/09/26 11:52:57;;;;;;;2.03;1.50;;;20.50;86.00;;;;;;5036086;28;20388;-78
2023/09/26 11:55:23;;;;;;;2.80;1.55;;;20.40;85.90;;;;;;5054050;28;20029;-78
2023/09/26 11:57:50;;;;;;;2.28;1.52;;;20.50;85.90;;;;;;5035799;28;20029;-76
2023/09/26 12:00:16;;;;;;;2.40;1.45;;;20.50;85.90;;;;;;5036101;28;20480;-78
2023/09/26 12:02:47;;;;;;;2.80;1.50;;;20.50;85.80;;;;;;5035705;28;20127;-78
2023/09/26 12:05:13;;;;;;;2.17;1.40;;;20.50;85.80;;;;;;5035668;28;20025;-79
2023/09/26 12:07:42;;;;;;;2.17;1.38;;;20.50;85.70;;;;;;5053560;28;20044;-78
2023/09/26 12:10:10;;;;;;;2.72;1.65;;;20.50;85.60;;;;;;5053516;28;20063;-78
2023/09/26 12:12:37;;;;;;;2.28;1.52;;;20.50;85.60;;;;;;5053431;28;20479;-79
2023/09/26 12:15:23;;;;;;;2.35;1.45;;;20.50;85.60;;;;;;5053495;28;20056;-78
2023/09/26 12:17:49;;;;;;;2.28;1.42;;;20.50;85.60;;;;;;5053090;28;20025;-78
2023/09/26 12:20:24;;;;;;;1.83;1.27;;;20.50;85.70;;;;;;5053292;28;20048;-79
2023/09/26 12:22:50;;;;;;;1.80;1.30;;;20.40;85.80;;;;;;5035465;28;20506;-78
2023/09/26 12:25:16;;;;;;;2.13;1.40;;;20.40;85.80;;;;;;5035352;28;20021;-79
2023/09/26 12:27:42;;;;;;;2.45;1.40;;;20.40;85.80;;;;;;5034362;28;20482;-79
2023/09/26 12:30:08;;;;;;;2.85;1.55;;;20.40;85.90;;;;;;5035514;28;20044;-78
2023/09/26 12:32:34;;;;;;;3.08;1.50;;;20.40;85.90;;;;;;5052758;28;20025;-79
2023/09/26 12:34:59;;;;;;;2.92;1.50;;;20.40;86.00;;;;;;5035212;28;20044;-78
2023/09/26 12:37:25;;;;;;;2.17;1.50;;;20.40;86.00;;;;;;5034946;28;20061;-79
2023/09/26 12:39:50;;;;;;;2.38;1.40;;;20.40;86.10;;;;;;5052788;28;20104;-78
2023/09/26 12:42:16;;;;;;;2.17;1.50;;;20.30;86.00;;;;;;5052591;28;20052;-78
2023/09/26 12:44:42;;;;;;;2.80;1.60;;;20.30;86.10;;;;;;5034983;28;20378;-78
2023/09/26 12:47:07;;;;;;;1.33;1.20;;;20.30;86.30;;;;;;5034745;28;20071;-78
2023/09/26 12:49:33;;;;;;;2.63;1.50;;;20.30;86.30;;;;;;5034724;28;20021;-78
2023/09/26 12:51:59;;;;;;;1.88;1.30;;;20.30;86.40;;;;;;5034614;28;20445;-78
2023/09/26 12:54:25;;;;;;;2.63;1.50;;;20.30;86.50;;;;;;5035509;28;20061;-79
2023/09/26 12:56:51;;;;;;;1.92;1.30;;;20.30;86.50;;;;;;5039265;28;20025;-79
2023/09/26 12:59:17;;;;;;;1.80;1.20;;;20.30;86.40;;;;;;5039065;28;20383;-79
2023/09/26 13:01:43;;;;;;;2.08;1.25;;;20.30;86.40;;;;;;5057359;28;20096;-79